Bowie, Arizona
Current Conditions -  °F | °C
As of 5:51 PM on Wednesday 17 Dec 2014 (Local Time) from KSAD Reporting Station
Light Rain Light Rain  
Wind Chill: 45°   Ceiling: 4900
Heat Index: 48°   Visibility: 10mi
Dew Point: 44°   Wind: 7mph
Humidity: 86%   Direction: 310°NW
Pressure: 30.08"   Gusts: NA
Location:  32.33°N, 109.49°W
Report Text: KSAD 180051Z AUTO 31006KT 10SM -RA FEW027 SCT042 OVC049 09/07 A3008 RMK AO2 SLP175 P0004 T00890067
Loading
Personal Weather Stations






























Interactive Weather Map New forecast layout! Learn more

10-Day Weather Forecast

Advertisements
Track Severe Weather on mobile